ENVR/VRY METAR and TAF weather

Enter ICAO airport designator
Station Type Date Time Source
ENVR METAR 2020/09/18 13:50 UTC NOAA

ENVR 181350Z 26024G44KT 230V300 9999 -RA FEW006 SCT024 BKN034 10/06 Q1011


Station Type Date Time Source
ENVR Decoded METAR 2020/09/18 13:50 UTC NOAA

Station name not available
Sep 18, 2020 - 09:50 AM EDT / 2020.09.18 1350 UTC
Wind: from the W (260 degrees) at 28 MPH (24 KT) gusting to 51 MPH (44 KT) (direction variable):0
Visibility: greater than 7 mile(s):0
Sky conditions: mostly cloudy
Weather: light rain
Temperature: 50 F (10 C)
Dew Point: 42 F (6 C)
Relative Humidity: 76%
Pressure (altimeter): 29.85 in. Hg (1011 hPa)
ob: ENVR 181350Z 26024G44KT 230V300 9999 -RA FEW006 SCT024 BKN034 10/06 Q1011
cycle: 14

Station Type Date Time Source
ENVR TAF UTC NOAA

Error!

Example: see airport list